sensor_id;sensor_type;location;lat;lon;timestamp;pressure;altitude;pressure_sealevel;temperature;humidity
34506;BME280;20748;42.632;23.198;2023-11-19T00:00:34;91937.34;;;1.06;86.05
34506;BME280;20748;42.632;23.198;2023-11-19T00:03:09;91941.25;;;1.09;85.83
34506;BME280;20748;42.632;23.198;2023-11-19T00:05:45;91930.59;;;1.00;85.68
34506;BME280;20748;42.632;23.198;2023-11-19T00:08:20;91934.44;;;0.97;86.36
34506;BME280;20748;42.632;23.198;2023-11-19T00:10:54;91931.81;;;1.14;85.96
34506;BME280;20748;42.632;23.198;2023-11-19T00:13:28;91936.94;;;1.14;85.77
34506;BME280;20748;42.632;23.198;2023-11-19T00:16:01;91947.56;;;1.23;85.19
34506;BME280;20748;42.632;23.198;2023-11-19T00:18:38;91955.66;;;1.10;85.45
34506;BME280;20748;42.632;23.198;2023-11-19T00:21:11;91960.75;;;1.04;85.78
34506;BME280;20748;42.632;23.198;2023-11-19T00:23:45;91946.63;;;0.85;86.91
34506;BME280;20748;42.632;23.198;2023-11-19T00:26:19;91939.72;;;0.85;86.28
34506;BME280;20748;42.632;23.198;2023-11-19T00:28:57;91951.44;;;0.98;85.97
34506;BME280;20748;42.632;23.198;2023-11-19T00:31:32;91949.50;;;1.11;86.93
34506;BME280;20748;42.632;23.198;2023-11-19T00:34:07;91957.09;;;1.00;86.55
34506;BME280;20748;42.632;23.198;2023-11-19T00:36:41;91956.78;;;0.97;86.64
34506;BME280;20748;42.632;23.198;2023-11-19T00:39:15;91958.94;;;1.05;86.92
34506;BME280;20748;42.632;23.198;2023-11-19T00:41:50;91958.09;;;1.22;87.00
34506;BME280;20748;42.632;23.198;2023-11-19T00:44:23;91960.53;;;1.33;86.61
34506;BME280;20748;42.632;23.198;2023-11-19T00:46:57;91955.47;;;1.16;85.52
34506;BME280;20748;42.632;23.198;2023-11-19T00:49:33;91960.19;;;1.02;86.41
34506;BME280;20748;42.632;23.198;2023-11-19T00:52:07;91956.31;;;1.00;86.54
34506;BME280;20748;42.632;23.198;2023-11-19T00:54:41;91957.69;;;0.85;86.61
34506;BME280;20748;42.632;23.198;2023-11-19T00:57:14;91970.41;;;0.97;87.32
34506;BME280;20748;42.632;23.198;2023-11-19T00:59:48;91973.34;;;0.84;87.72
34506;BME280;20748;42.632;23.198;2023-11-19T01:02:22;91966.28;;;0.74;87.95
34506;BME280;20748;42.632;23.198;2023-11-19T01:04:57;91968.56;;;0.70;88.39
34506;BME280;20748;42.632;23.198;2023-11-19T01:07:31;91969.75;;;0.85;88.88
34506;BME280;20748;42.632;23.198;2023-11-19T01:10:06;91961.16;;;0.96;87.97
34506;BME280;20748;42.632;23.198;2023-11-19T01:12:41;91971.19;;;0.98;87.85
34506;BME280;20748;42.632;23.198;2023-11-19T01:15:14;91955.91;;;1.08;87.58
34506;BME280;20748;42.632;23.198;2023-11-19T01:17:51;91963.38;;;1.10;86.09
34506;BME280;20748;42.632;23.198;2023-11-19T01:20:27;91947.06;;;1.26;85.63
34506;BME280;20748;42.632;23.198;2023-11-19T01:23:00;91959.75;;;1.33;85.28
34506;BME280;20748;42.632;23.198;2023-11-19T01:25:34;91961.06;;;1.36;85.42
34506;BME280;20748;42.632;23.198;2023-11-19T01:28:10;91966.88;;;1.26;86.04
34506;BME280;20748;42.632;23.198;2023-11-19T01:30:44;91967.34;;;1.23;85.23
34506;BME280;20748;42.632;23.198;2023-11-19T01:33:18;91968.50;;;1.10;85.42
34506;BME280;20748;42.632;23.198;2023-11-19T01:35:55;91955.16;;;1.13;85.16
34506;BME280;20748;42.632;23.198;2023-11-19T01:38:31;91975.00;;;1.17;85.58
34506;BME280;20748;42.632;23.198;2023-11-19T01:41:04;91971.19;;;1.20;84.74
34506;BME280;20748;42.632;23.198;2023-11-19T01:43:39;91975.63;;;1.25;84.51
34506;BME280;20748;42.632;23.198;2023-11-19T01:46:15;91977.28;;;1.14;83.24
34506;BME280;20748;42.632;23.198;2023-11-19T01:48:49;91981.88;;;1.12;83.96
34506;BME280;20748;42.632;23.198;2023-11-19T01:51:24;91984.94;;;1.09;84.10
34506;BME280;20748;42.632;23.198;2023-11-19T01:53:58;91988.81;;;1.11;84.69
34506;BME280;20748;42.632;23.198;2023-11-19T01:56:32;91996.06;;;1.14;84.74
34506;BME280;20748;42.632;23.198;2023-11-19T01:59:07;91990.44;;;0.95;84.63
34506;BME280;20748;42.632;23.198;2023-11-19T02:01:42;91979.56;;;1.10;84.01
34506;BME280;20748;42.632;23.198;2023-11-19T02:04:16;91990.06;;;1.09;83.77
34506;BME280;20748;42.632;23.198;2023-11-19T02:06:53;91988.00;;;1.05;84.16
34506;BME280;20748;42.632;23.198;2023-11-19T02:09:29;91982.84;;;1.05;83.75
34506;BME280;20748;42.632;23.198;2023-11-19T02:12:04;91976.31;;;0.98;84.42
34506;BME280;20748;42.632;23.198;2023-11-19T02:14:38;91971.91;;;0.93;84.44
34506;BME280;20748;42.632;23.198;2023-11-19T02:17:26;91984.16;;;0.86;84.39
34506;BME280;20748;42.632;23.198;2023-11-19T02:20:00;91976.75;;;0.89;85.09
34506;BME280;20748;42.632;23.198;2023-11-19T02:22:41;91970.47;;;1.02;83.55
34506;BME280;20748;42.632;23.198;2023-11-19T02:25:21;91974.84;;;1.02;83.21
34506;BME280;20748;42.632;23.198;2023-11-19T02:27:59;91977.59;;;0.95;82.99
34506;BME280;20748;42.632;23.198;2023-11-19T02:30:33;91980.81;;;1.07;83.48
34506;BME280;20748;42.632;23.198;2023-11-19T02:33:07;91966.34;;;1.01;83.88
34506;BME280;20748;42.632;23.198;2023-11-19T02:35:41;91957.69;;;1.07;83.66
34506;BME280;20748;42.632;23.198;2023-11-19T02:38:14;91959.06;;;1.15;82.88
34506;BME280;20748;42.632;23.198;2023-11-19T02:40:48;91959.28;;;1.14;82.56
34506;BME280;20748;42.632;23.198;2023-11-19T02:43:24;91957.63;;;1.25;82.66
34506;BME280;20748;42.632;23.198;2023-11-19T02:45:59;91955.06;;;1.25;82.80
34506;BME280;20748;42.632;23.198;2023-11-19T02:48:33;91955.56;;;1.27;83.33
34506;BME280;20748;42.632;23.198;2023-11-19T02:51:07;91965.44;;;1.13;81.87
34506;BME280;20748;42.632;23.198;2023-11-19T02:53:43;91963.91;;;1.12;82.90
34506;BME280;20748;42.632;23.198;2023-11-19T02:56:17;91957.81;;;0.96;82.86
34506;BME280;20748;42.632;23.198;2023-11-19T02:58:58;91961.16;;;0.96;82.89
34506;BME280;20748;42.632;23.198;2023-11-19T03:01:35;91970.00;;;1.05;83.74
34506;BME280;20748;42.632;23.198;2023-11-19T03:04:09;91972.06;;;1.09;82.87
34506;BME280;20748;42.632;23.198;2023-11-19T03:06:45;91978.72;;;1.04;82.62
34506;BME280;20748;42.632;23.198;2023-11-19T03:09:18;91967.91;;;1.02;83.36
34506;BME280;20748;42.632;23.198;2023-11-19T03:11:52;91971.09;;;1.10;83.65
34506;BME280;20748;42.632;23.198;2023-11-19T03:14:27;91986.72;;;1.08;83.48
34506;BME280;20748;42.632;23.198;2023-11-19T03:17:01;91982.72;;;0.95;84.10
34506;BME280;20748;42.632;23.198;2023-11-19T03:19:35;91985.59;;;0.99;83.86
34506;BME280;20748;42.632;23.198;2023-11-19T03:22:09;91985.41;;;1.05;83.21
34506;BME280;20748;42.632;23.198;2023-11-19T03:24:43;91985.41;;;0.83;84.88
34506;BME280;20748;42.632;23.198;2023-11-19T03:27:17;91987.13;;;0.77;84.48
34506;BME280;20748;42.632;23.198;2023-11-19T03:29:52;91986.31;;;0.94;83.35
34506;BME280;20748;42.632;23.198;2023-11-19T03:32:26;91984.47;;;0.89;83.73
34506;BME280;20748;42.632;23.198;2023-11-19T03:34:59;91987.19;;;0.83;83.88
34506;BME280;20748;42.632;23.198;2023-11-19T03:37:33;91988.59;;;0.90;83.54
34506;BME280;20748;42.632;23.198;2023-11-19T03:40:10;91993.81;;;0.78;84.53
34506;BME280;20748;42.632;23.198;2023-11-19T03:42:44;92004.22;;;0.89;84.01
34506;BME280;20748;42.632;23.198;2023-11-19T03:45:19;91998.91;;;0.96;83.97
34506;BME280;20748;42.632;23.198;2023-11-19T03:47:53;92011.63;;;0.85;83.73
34506;BME280;20748;42.632;23.198;2023-11-19T03:50:28;92017.66;;;0.74;85.07
34506;BME280;20748;42.632;23.198;2023-11-19T03:53:01;92020.13;;;0.69;85.08
34506;BME280;20748;42.632;23.198;2023-11-19T03:55:35;92017.22;;;0.82;84.49
34506;BME280;20748;42.632;23.198;2023-11-19T03:58:09;92003.63;;;0.82;83.51
34506;BME280;20748;42.632;23.198;2023-11-19T04:00:44;92019.09;;;0.87;84.50
34506;BME280;20748;42.632;23.198;2023-11-19T04:03:18;92008.91;;;0.92;83.79
34506;BME280;20748;42.632;23.198;2023-11-19T04:05:52;92020.81;;;0.81;83.92
34506;BME280;20748;42.632;23.198;2023-11-19T04:08:25;92021.63;;;0.64;84.52
34506;BME280;20748;42.632;23.198;2023-11-19T04:11:00;92028.72;;;0.74;84.36
34506;BME280;20748;42.632;23.198;2023-11-19T04:13:34;92044.28;;;0.68;84.27
34506;BME280;20748;42.632;23.198;2023-11-19T04:16:09;92037.78;;;0.82;85.30
34506;BME280;20748;42.632;23.198;2023-11-19T04:18:43;92046.00;;;0.45;84.60
34506;BME280;20748;42.632;23.198;2023-11-19T04:21:17;92037.66;;;0.72;85.26
34506;BME280;20748;42.632;23.198;2023-11-19T04:23:50;92036.41;;;0.74;84.54
34506;BME280;20748;42.632;23.198;2023-11-19T04:26:24;92037.34;;;0.68;83.69
34506;BME280;20748;42.632;23.198;2023-11-19T04:28:58;92043.09;;;0.75;84.52
34506;BME280;20748;42.632;23.198;2023-11-19T04:31:34;92046.44;;;0.76;84.02
34506;BME280;20748;42.632;23.198;2023-11-19T04:34:08;92054.81;;;0.88;83.76
34506;BME280;20748;42.632;23.198;2023-11-19T04:36:42;92058.97;;;0.89;83.58
34506;BME280;20748;42.632;23.198;2023-11-19T04:39:16;92052.13;;;0.78;83.62
34506;BME280;20748;42.632;23.198;2023-11-19T04:41:51;92055.00;;;0.82;83.66
34506;BME280;20748;42.632;23.198;2023-11-19T04:44:25;92050.00;;;0.92;83.15
34506;BME280;20748;42.632;23.198;2023-11-19T04:47:00;92037.09;;;0.87;83.76
34506;BME280;20748;42.632;23.198;2023-11-19T04:49:34;92034.53;;;0.70;82.41
34506;BME280;20748;42.632;23.198;2023-11-19T04:52:08;92042.16;;;0.64;83.22
34506;BME280;20748;42.632;23.198;2023-11-19T04:54:42;92036.41;;;0.74;82.84
34506;BME280;20748;42.632;23.198;2023-11-19T04:57:16;92035.22;;;0.82;82.74
34506;BME280;20748;42.632;23.198;2023-11-19T04:59:50;92039.09;;;0.85;82.75
34506;BME280;20748;42.632;23.198;2023-11-19T05:02:25;92050.56;;;0.77;82.65
34506;BME280;20748;42.632;23.198;2023-11-19T05:04:59;92066.00;;;0.77;83.03
34506;BME280;20748;42.632;23.198;2023-11-19T05:07:34;92072.91;;;0.76;82.74
34506;BME280;20748;42.632;23.198;2023-11-19T05:10:09;92061.31;;;0.74;82.50
34506;BME280;20748;42.632;23.198;2023-11-19T05:12:43;92067.34;;;0.85;83.29
34506;BME280;20748;42.632;23.198;2023-11-19T05:15:17;92075.47;;;0.76;82.27
34506;BME280;20748;42.632;23.198;2023-11-19T05:17:52;92066.38;;;0.69;82.53
34506;BME280;20748;42.632;23.198;2023-11-19T05:20:26;92067.69;;;0.71;83.96
34506;BME280;20748;42.632;23.198;2023-11-19T05:22:59;92063.94;;;0.62;84.00
34506;BME280;20748;42.632;23.198;2023-11-19T05:25:34;92061.19;;;0.46;84.76
34506;BME280;20748;42.632;23.198;2023-11-19T05:28:07;92061.38;;;0.62;84.43
34506;BME280;20748;42.632;23.198;2023-11-19T05:30:41;92058.81;;;0.62;83.48
34506;BME280;20748;42.632;23.198;2023-11-19T05:33:16;92063.66;;;0.58;84.26
34506;BME280;20748;42.632;23.198;2023-11-19T05:35:50;92066.78;;;0.60;83.65
34506;BME280;20748;42.632;23.198;2023-11-19T05:38:24;92071.19;;;0.31;84.06
34506;BME280;20748;42.632;23.198;2023-11-19T05:40:58;92078.19;;;0.18;84.31
34506;BME280;20748;42.632;23.198;2023-11-19T05:43:32;92068.25;;;0.39;84.75
34506;BME280;20748;42.632;23.198;2023-11-19T05:46:06;92074.00;;;0.46;84.08
34506;BME280;20748;42.632;23.198;2023-11-19T05:48:53;92077.72;;;0.56;85.16
34506;BME280;20748;42.632;23.198;2023-11-19T05:51:26;92081.47;;;0.65;85.35
34506;BME280;20748;42.632;23.198;2023-11-19T05:54:00;92084.66;;;0.72;84.03
34506;BME280;20748;42.632;23.198;2023-11-19T05:56:34;92083.72;;;0.78;84.78
34506;BME280;20748;42.632;23.198;2023-11-19T05:59:08;92085.34;;;0.85;84.12
34506;BME280;20748;42.632;23.198;2023-11-19T06:01:47;92081.94;;;0.79;84.28
34506;BME280;20748;42.632;23.198;2023-11-19T06:04:23;92090.03;;;0.71;83.82
34506;BME280;20748;42.632;23.198;2023-11-19T06:06:56;92100.13;;;0.77;84.57
34506;BME280;20748;42.632;23.198;2023-11-19T06:09:30;92106.84;;;0.78;84.70
34506;BME280;20748;42.632;23.198;2023-11-19T06:12:06;92111.56;;;0.70;83.65
34506;BME280;20748;42.632;23.198;2023-11-19T06:14:40;92112.91;;;0.72;83.57
34506;BME280;20748;42.632;23.198;2023-11-19T06:17:14;92093.53;;;0.82;82.94
34506;BME280;20748;42.632;23.198;2023-11-19T06:19:49;92088.53;;;0.75;83.77
34506;BME280;20748;42.632;23.198;2023-11-19T06:22:23;92101.00;;;0.49;84.03
34506;BME280;20748;42.632;23.198;2023-11-19T06:24:57;92096.56;;;0.27;84.79
34506;BME280;20748;42.632;23.198;2023-11-19T06:27:31;92094.47;;;0.24;86.00
34506;BME280;20748;42.632;23.198;2023-11-19T06:30:06;92108.44;;;0.16;86.12
34506;BME280;20748;42.632;23.198;2023-11-19T06:32:40;92110.94;;;0.28;85.04
34506;BME280;20748;42.632;23.198;2023-11-19T06:35:15;92096.94;;;0.36;85.33
34506;BME280;20748;42.632;23.198;2023-11-19T06:37:49;92100.06;;;0.38;85.05
34506;BME280;20748;42.632;23.198;2023-11-19T06:40:22;92122.78;;;0.46;85.11
34506;BME280;20748;42.632;23.198;2023-11-19T06:42:57;92106.38;;;0.47;84.38
34506;BME280;20748;42.632;23.198;2023-11-19T06:45:32;92105.91;;;0.50;84.04
34506;BME280;20748;42.632;23.198;2023-11-19T06:48:05;92109.25;;;0.51;83.75
34506;BME280;20748;42.632;23.198;2023-11-19T06:50:41;92106.38;;;0.64;83.65
34506;BME280;20748;42.632;23.198;2023-11-19T06:53:14;92098.28;;;0.73;83.53
34506;BME280;20748;42.632;23.198;2023-11-19T06:55:48;92117.72;;;0.69;83.57
34506;BME280;20748;42.632;23.198;2023-11-19T06:58:22;92115.78;;;0.59;82.55
34506;BME280;20748;42.632;23.198;2023-11-19T07:00:56;92114.38;;;0.51;82.59
34506;BME280;20748;42.632;23.198;2023-11-19T07:03:29;92114.16;;;0.52;83.80
34506;BME280;20748;42.632;23.198;2023-11-19T07:06:05;92105.03;;;0.62;82.74
34506;BME280;20748;42.632;23.198;2023-11-19T07:08:40;92111.59;;;0.52;82.94
34506;BME280;20748;42.632;23.198;2023-11-19T07:11:14;92121.72;;;0.59;82.91
34506;BME280;20748;42.632;23.198;2023-11-19T07:13:49;92120.75;;;0.31;83.74
34506;BME280;20748;42.632;23.198;2023-11-19T07:16:22;92113.66;;;0.21;83.42
34506;BME280;20748;42.632;23.198;2023-11-19T07:18:56;92113.50;;;0.28;84.00
34506;BME280;20748;42.632;23.198;2023-11-19T07:21:32;92123.16;;;0.38;83.98
34506;BME280;20748;42.632;23.198;2023-11-19T07:24:06;92116.63;;;0.30;83.13
34506;BME280;20748;42.632;23.198;2023-11-19T07:26:43;92118.31;;;0.24;83.44
34506;BME280;20748;42.632;23.198;2023-11-19T07:29:17;92120.16;;;0.12;83.68
34506;BME280;20748;42.632;23.198;2023-11-19T07:31:54;92141.06;;;0.04;84.25
34506;BME280;20748;42.632;23.198;2023-11-19T07:34:28;92142.03;;;0.15;84.53
34506;BME280;20748;42.632;23.198;2023-11-19T07:37:04;92144.69;;;0.20;84.34
34506;BME280;20748;42.632;23.198;2023-11-19T07:39:37;92145.22;;;0.22;83.92
34506;BME280;20748;42.632;23.198;2023-11-19T07:42:14;92137.34;;;0.11;84.11
34506;BME280;20748;42.632;23.198;2023-11-19T07:44:47;92139.66;;;-0.04;84.42
34506;BME280;20748;42.632;23.198;2023-11-19T07:47:21;92139.00;;;-0.11;84.91
34506;BME280;20748;42.632;23.198;2023-11-19T07:49:56;92130.94;;;-0.03;85.13
34506;BME280;20748;42.632;23.198;2023-11-19T07:52:31;92134.78;;;0.11;84.64
34506;BME280;20748;42.632;23.198;2023-11-19T07:55:05;92143.38;;;0.05;84.41
34506;BME280;20748;42.632;23.198;2023-11-19T07:57:39;92147.56;;;0.23;84.15
34506;BME280;20748;42.632;23.198;2023-11-19T08:00:13;92135.66;;;0.17;84.47
34506;BME280;20748;42.632;23.198;2023-11-19T08:02:47;92138.63;;;0.26;83.72
34506;BME280;20748;42.632;23.198;2023-11-19T08:05:21;92144.88;;;0.30;83.68
34506;BME280;20748;42.632;23.198;2023-11-19T08:07:58;92147.59;;;0.40;83.69
34506;BME280;20748;42.632;23.198;2023-11-19T08:10:32;92157.66;;;0.59;83.95
34506;BME280;20748;42.632;23.198;2023-11-19T08:13:06;92157.50;;;0.66;82.18
34506;BME280;20748;42.632;23.198;2023-11-19T08:15:40;92158.97;;;0.62;81.21
34506;BME280;20748;42.632;23.198;2023-11-19T08:18:15;92160.22;;;0.59;81.09
34506;BME280;20748;42.632;23.198;2023-11-19T08:20:49;92166.44;;;0.63;81.69
34506;BME280;20748;42.632;23.198;2023-11-19T08:23:27;92161.25;;;0.75;81.96
34506;BME280;20748;42.632;23.198;2023-11-19T08:26:01;92156.03;;;0.87;80.94
34506;BME280;20748;42.632;23.198;2023-11-19T08:28:34;92163.88;;;0.98;80.49
34506;BME280;20748;42.632;23.198;2023-11-19T08:31:08;92148.25;;;0.99;80.48
34506;BME280;20748;42.632;23.198;2023-11-19T08:33:42;92149.00;;;1.00;80.08
34506;BME280;20748;42.632;23.198;2023-11-19T08:36:16;92148.53;;;1.20;79.57
34506;BME280;20748;42.632;23.198;2023-11-19T08:38:51;92159.38;;;1.22;80.45
34506;BME280;20748;42.632;23.198;2023-11-19T08:41:25;92169.81;;;0.98;81.31
34506;BME280;20748;42.632;23.198;2023-11-19T08:43:59;92172.38;;;0.98;81.47
34506;BME280;20748;42.632;23.198;2023-11-19T08:46:33;92178.53;;;0.97;81.83
34506;BME280;20748;42.632;23.198;2023-11-19T08:49:06;92174.41;;;0.96;81.38
34506;BME280;20748;42.632;23.198;2023-11-19T08:51:41;92172.78;;;1.07;81.52
34506;BME280;20748;42.632;23.198;2023-11-19T08:54:17;92180.56;;;0.95;81.43
34506;BME280;20748;42.632;23.198;2023-11-19T08:56:52;92181.09;;;0.97;81.62
34506;BME280;20748;42.632;23.198;2023-11-19T08:59:26;92187.94;;;0.91;81.76
34506;BME280;20748;42.632;23.198;2023-11-19T09:02:00;92186.31;;;1.02;82.20
34506;BME280;20748;42.632;23.198;2023-11-19T09:04:34;92185.53;;;1.02;81.52
34506;BME280;20748;42.632;23.198;2023-11-19T09:07:08;92175.66;;;0.76;82.09
34506;BME280;20748;42.632;23.198;2023-11-19T09:09:44;92182.50;;;0.88;81.99
34506;BME280;20748;42.632;23.198;2023-11-19T09:12:18;92176.25;;;0.84;82.66
34506;BME280;20748;42.632;23.198;2023-11-19T09:14:59;92172.47;;;0.86;82.78
34506;BME280;20748;42.632;23.198;2023-11-19T09:17:33;92161.00;;;0.94;82.08
34506;BME280;20748;42.632;23.198;2023-11-19T09:20:08;92165.06;;;0.90;82.15
34506;BME280;20748;42.632;23.198;2023-11-19T09:22:44;92173.75;;;1.06;82.59
34506;BME280;20748;42.632;23.198;2023-11-19T09:25:19;92184.59;;;1.08;82.58
34506;BME280;20748;42.632;23.198;2023-11-19T09:27:53;92184.69;;;0.79;83.19
34506;BME280;20748;42.632;23.198;2023-11-19T09:30:27;92193.72;;;0.99;83.34
34506;BME280;20748;42.632;23.198;2023-11-19T09:33:01;92192.16;;;0.80;83.56
34506;BME280;20748;42.632;23.198;2023-11-19T09:35:35;92182.25;;;0.55;85.01
34506;BME280;20748;42.632;23.198;2023-11-19T09:38:09;92166.88;;;0.43;86.33
34506;BME280;20748;42.632;23.198;2023-11-19T09:40:46;92150.63;;;0.55;85.85
34506;BME280;20748;42.632;23.198;2023-11-19T09:43:20;92150.94;;;0.58;85.45
34506;BME280;20748;42.632;23.198;2023-11-19T09:45:56;92143.94;;;0.71;85.21
34506;BME280;20748;42.632;23.198;2023-11-19T09:48:32;92132.22;;;0.58;84.45
34506;BME280;20748;42.632;23.198;2023-11-19T09:51:06;92122.41;;;0.55;83.00
34506;BME280;20748;42.632;23.198;2023-11-19T09:53:41;92117.19;;;0.49;84.42
34506;BME280;20748;42.632;23.198;2023-11-19T09:56:16;92109.72;;;0.65;83.50
34506;BME280;20748;42.632;23.198;2023-11-19T09:58:50;92110.66;;;0.76;82.48
34506;BME280;20748;42.632;23.198;2023-11-19T10:01:24;92115.72;;;0.88;81.38
34506;BME280;20748;42.632;23.198;2023-11-19T10:04:01;92118.72;;;0.85;81.87
34506;BME280;20748;42.632;23.198;2023-11-19T10:06:35;92132.19;;;1.09;81.65
34506;BME280;20748;42.632;23.198;2023-11-19T10:09:09;92124.69;;;1.25;79.62
34506;BME280;20748;42.632;23.198;2023-11-19T10:11:44;92123.13;;;1.24;80.18
34506;BME280;20748;42.632;23.198;2023-11-19T10:14:20;92117.09;;;1.35;80.43
34506;BME280;20748;42.632;23.198;2023-11-19T10:16:56;92121.25;;;1.36;78.84
34506;BME280;20748;42.632;23.198;2023-11-19T10:19:31;92127.50;;;1.23;78.22
34506;BME280;20748;42.632;23.198;2023-11-19T10:22:06;92138.28;;;1.42;77.59
34506;BME280;20748;42.632;23.198;2023-11-19T10:24:39;92122.88;;;1.65;77.76
34506;BME280;20748;42.632;23.198;2023-11-19T10:27:23;92122.03;;;1.81;76.29
34506;BME280;20748;42.632;23.198;2023-11-19T10:29:59;92117.03;;;1.97;75.77
34506;BME280;20748;42.632;23.198;2023-11-19T10:32:33;92106.66;;;2.14;75.34
34506;BME280;20748;42.632;23.198;2023-11-19T10:35:07;92093.31;;;2.17;73.83
34506;BME280;20748;42.632;23.198;2023-11-19T10:37:42;92090.03;;;2.22;74.42
34506;BME280;20748;42.632;23.198;2023-11-19T10:40:16;92100.72;;;2.41;74.03
34506;BME280;20748;42.632;23.198;2023-11-19T10:43:01;92113.44;;;2.53;73.90
34506;BME280;20748;42.632;23.198;2023-11-19T10:45:36;92102.94;;;2.60;74.00
34506;BME280;20748;42.632;23.198;2023-11-19T10:48:11;92111.06;;;2.46;73.25
34506;BME280;20748;42.632;23.198;2023-11-19T10:50:46;92113.47;;;2.25;73.33
34506;BME280;20748;42.632;23.198;2023-11-19T10:53:23;92107.53;;;2.25;73.99
34506;BME280;20748;42.632;23.198;2023-11-19T10:55:59;92107.53;;;2.25;73.25
34506;BME280;20748;42.632;23.198;2023-11-19T10:58:35;92118.81;;;2.19;73.66
34506;BME280;20748;42.632;23.198;2023-11-19T11:01:13;92102.72;;;2.34;73.77
34506;BME280;20748;42.632;23.198;2023-11-19T11:03:50;92098.59;;;2.33;74.99
34506;BME280;20748;42.632;23.198;2023-11-19T11:06:26;92089.06;;;2.06;75.24
34506;BME280;20748;42.632;23.198;2023-11-19T11:09:00;92077.72;;;2.29;74.61
34506;BME280;20748;42.632;23.198;2023-11-19T11:11:35;92071.66;;;2.13;74.00
34506;BME280;20748;42.632;23.198;2023-11-19T11:14:12;92054.44;;;2.19;74.95
34506;BME280;20748;42.632;23.198;2023-11-19T11:16:48;92054.81;;;2.33;73.56
34506;BME280;20748;42.632;23.198;2023-11-19T11:19:22;92067.91;;;2.26;73.53
34506;BME280;20748;42.632;23.198;2023-11-19T11:21:57;92067.00;;;2.42;73.21
34506;BME280;20748;42.632;23.198;2023-11-19T11:27:49;92057.06;;;2.57;73.13
34506;BME280;20748;42.632;23.198;2023-11-19T11:30:37;92051.66;;;2.96;74.00
34506;BME280;20748;42.632;23.198;2023-11-19T11:33:29;92050.28;;;3.36;72.33
34506;BME280;20748;42.632;23.198;2023-11-19T11:36:12;92050.69;;;3.71;70.15
34506;BME280;20748;42.632;23.198;2023-11-19T11:38:48;92053.75;;;3.68;67.86
34506;BME280;20748;42.632;23.198;2023-11-19T11:41:23;92043.25;;;3.85;67.79
34506;BME280;20748;42.632;23.198;2023-11-19T11:44:01;92024.41;;;3.90;66.72
34506;BME280;20748;42.632;23.198;2023-11-19T11:46:55;92021.31;;;3.98;68.30
34506;BME280;20748;42.632;23.198;2023-11-19T11:49:30;92024.44;;;4.11;63.81
34506;BME280;20748;42.632;23.198;2023-11-19T11:52:04;92030.34;;;3.96;65.70
34506;BME280;20748;42.632;23.198;2023-11-19T11:54:37;92027.25;;;3.94;65.41
34506;BME280;20748;42.632;23.198;2023-11-19T11:57:12;92014.00;;;3.54;65.31
34506;BME280;20748;42.632;23.198;2023-11-19T11:59:48;92009.66;;;3.70;67.03
34506;BME280;20748;42.632;23.198;2023-11-19T12:02:25;92030.34;;;3.91;65.90
34506;BME280;20748;42.632;23.198;2023-11-19T12:05:00;92032.94;;;3.91;66.14
34506;BME280;20748;42.632;23.198;2023-11-19T12:07:38;92025.94;;;3.86;67.48
34506;BME280;20748;42.632;23.198;2023-11-19T12:10:12;92006.06;;;3.86;65.01
34506;BME280;20748;42.632;23.198;2023-11-19T12:12:48;92016.91;;;3.73;65.86
34506;BME280;20748;42.632;23.198;2023-11-19T12:15:22;92021.03;;;3.89;65.74
34506;BME280;20748;42.632;23.198;2023-11-19T12:17:59;92011.75;;;3.94;65.67
34506;BME280;20748;42.632;23.198;2023-11-19T12:20:33;92016.41;;;3.86;65.44
34506;BME280;20748;42.632;23.198;2023-11-19T12:23:09;92006.63;;;4.04;64.70
34506;BME280;20748;42.632;23.198;2023-11-19T12:25:43;91991.13;;;4.04;66.02
34506;BME280;20748;42.632;23.198;2023-11-19T12:28:18;92000.41;;;4.31;63.43
34506;BME280;20748;42.632;23.198;2023-11-19T12:30:52;91991.91;;;4.15;62.97
34506;BME280;20748;42.632;23.198;2023-11-19T12:33:30;91982.59;;;4.24;64.22
34506;BME280;20748;42.632;23.198;2023-11-19T12:36:05;91990.34;;;4.24;64.29
34506;BME280;20748;42.632;23.198;2023-11-19T12:38:39;91986.47;;;4.42;63.52
34506;BME280;20748;42.632;23.198;2023-11-19T12:41:14;91977.94;;;4.26;63.06
34506;BME280;20748;42.632;23.198;2023-11-19T12:43:53;91995.50;;;4.14;63.31
34506;BME280;20748;42.632;23.198;2023-11-19T12:46:27;91990.59;;;4.12;64.34
34506;BME280;20748;42.632;23.198;2023-11-19T12:49:02;91990.88;;;4.11;64.02
34506;BME280;20748;42.632;23.198;2023-11-19T12:51:37;91990.09;;;4.31;64.74
34506;BME280;20748;42.632;23.198;2023-11-19T12:54:10;91990.88;;;4.42;62.77
34506;BME280;20748;42.632;23.198;2023-11-19T12:56:52;91979.75;;;4.52;62.61
34506;BME280;20748;42.632;23.198;2023-11-19T12:59:26;91974.31;;;4.53;62.58
34506;BME280;20748;42.632;23.198;2023-11-19T13:02:00;91975.06;;;4.64;62.71
34506;BME280;20748;42.632;23.198;2023-11-19T13:04:36;91970.16;;;4.57;61.55
34506;BME280;20748;42.632;23.198;2023-11-19T13:07:10;91969.66;;;4.55;60.79
34506;BME280;20748;42.632;23.198;2023-11-19T13:09:44;91968.06;;;4.75;62.24
34506;BME280;20748;42.632;23.198;2023-11-19T13:12:18;91978.41;;;4.80;62.37
34506;BME280;20748;42.632;23.198;2023-11-19T13:14:51;91978.69;;;4.74;61.46
34506;BME280;20748;42.632;23.198;2023-11-19T13:17:26;91980.47;;;4.89;60.16
34506;BME280;20748;42.632;23.198;2023-11-19T13:20:02;91969.63;;;4.76;61.51
34506;BME280;20748;42.632;23.198;2023-11-19T13:22:37;91954.06;;;4.92;59.29
34506;BME280;20748;42.632;23.198;2023-11-19T13:25:10;91967.47;;;5.04;57.89
34506;BME280;20748;42.632;23.198;2023-11-19T13:27:46;91961.53;;;5.09;56.81
34506;BME280;20748;42.632;23.198;2023-11-19T13:30:20;91962.06;;;4.95;55.01
34506;BME280;20748;42.632;23.198;2023-11-19T13:32:57;91949.59;;;5.08;55.21
34506;BME280;20748;42.632;23.198;2023-11-19T13:35:33;91955.81;;;5.12;55.99
34506;BME280;20748;42.632;23.198;2023-11-19T13:38:07;91963.81;;;5.10;55.41
34506;BME280;20748;42.632;23.198;2023-11-19T13:40:41;91960.97;;;5.17;55.82
34506;BME280;20748;42.632;23.198;2023-11-19T13:43:15;91972.00;;;5.38;54.84